createdAt,value
2023-01-03T00:01:39.960Z,25.90
2023-01-03T00:06:39.132Z,27.20
2023-01-03T00:09:09.375Z,23.50
2023-01-03T00:11:55.244Z,25.70
2023-01-03T00:14:23.990Z,25.00
2023-01-03T00:16:52.696Z,29.80
2023-01-03T00:19:19.582Z,27.20
2023-01-03T00:24:13.147Z,28.50
2023-01-03T00:26:41.071Z,21.60
2023-01-03T00:29:08.621Z,22.80
2023-01-03T00:31:36.117Z,24.50
2023-01-03T00:34:02.823Z,24.00
2023-01-03T00:36:29.587Z,21.10
2023-01-03T00:41:22.978Z,18.80
2023-01-03T00:43:50.009Z,20.90
2023-01-03T00:46:17.907Z,23.40
2023-01-03T00:48:44.763Z,21.60
2023-01-03T00:53:39.805Z,24.80
2023-01-03T00:56:08.679Z,22.70
2023-01-03T00:58:35.668Z,23.50
2023-01-03T01:01:17.994Z,21.80
2023-01-03T01:03:47.254Z,22.70
2023-01-03T01:06:15.972Z,21.30
2023-01-03T01:08:43.314Z,22.70
2023-01-03T01:11:10.195Z,22.40
2023-01-03T01:16:12.870Z,22.80
2023-01-03T01:18:40.274Z,23.10
2023-01-03T01:21:07.900Z,23.40
2023-01-03T01:23:35.626Z,25.30
2023-01-03T01:26:03.092Z,23.80
2023-01-03T01:28:29.875Z,22.90
2023-01-03T01:31:00.570Z,22.80
2023-01-03T01:33:27.419Z,19.50
2023-01-03T01:35:54.308Z,21.30
2023-01-03T01:38:21.028Z,23.30
2023-01-03T01:40:47.817Z,22.10
2023-01-03T01:43:41.336Z,22.10
2023-01-03T01:46:26.031Z,18.70
2023-01-03T01:49:05.157Z,19.50
2023-01-03T01:51:33.842Z,20.20
2023-01-03T01:54:01.770Z,19.80
2023-01-03T01:56:31.135Z,17.00
2023-01-03T01:58:57.878Z,19.30
2023-01-03T02:01:24.962Z,18.40
2023-01-03T02:04:09.816Z,17.90
2023-01-03T02:06:36.525Z,19.60
2023-01-03T02:09:03.319Z,17.00
2023-01-03T02:14:19.259Z,15.10
2023-01-03T02:17:08.496Z,15.20
2023-01-03T02:19:35.158Z,20.70
2023-01-03T02:22:39.636Z,16.60
2023-01-03T02:25:41.674Z,17.30
2023-01-03T02:28:11.379Z,18.60
2023-01-03T02:30:38.117Z,17.00
2023-01-03T02:33:04.796Z,22.80
2023-01-03T02:35:39.195Z,16.90
2023-01-03T02:38:13.515Z,19.10
2023-01-03T02:40:44.719Z,19.70
2023-01-03T02:43:11.494Z,19.70
2023-01-03T02:45:48.637Z,20.40
2023-01-03T02:48:31.139Z,21.80
2023-01-03T02:50:58.623Z,19.60
2023-01-03T02:53:27.827Z,21.60
2023-01-03T02:55:55.636Z,24.60
2023-01-03T02:58:23.617Z,18.40
2023-01-03T03:00:51.711Z,18.60
2023-01-03T03:03:21.050Z,21.00
2023-01-03T03:05:54.399Z,18.90
2023-01-03T03:08:21.152Z,18.00
2023-01-03T03:11:06.578Z,16.50
2023-01-03T03:13:38.503Z,22.60
2023-01-03T03:16:12.822Z,18.80
2023-01-03T03:18:58.728Z,20.40
2023-01-03T03:21:46.389Z,15.60
2023-01-03T03:24:45.150Z,16.70
2023-01-03T03:27:31.419Z,18.80
2023-01-03T03:29:58.794Z,19.60
2023-01-03T03:32:26.120Z,20.40
2023-01-03T03:34:53.866Z,22.20
2023-01-03T03:37:20.573Z,21.20
2023-01-03T03:40:05.867Z,19.40
2023-01-03T03:43:08.428Z,22.90
2023-01-03T03:45:49.692Z,22.10
2023-01-03T03:48:29.708Z,20.30
2023-01-03T03:51:07.005Z,25.10
2023-01-03T03:53:34.666Z,26.70
2023-01-03T03:56:07.392Z,22.30
2023-01-03T03:58:42.177Z,21.00
2023-01-03T04:01:09.572Z,28.00
2023-01-03T04:03:36.347Z,24.20
2023-01-03T04:06:08.798Z,23.90
2023-01-03T04:08:35.483Z,22.50
2023-01-03T04:11:08.258Z,24.80
2023-01-03T04:13:36.535Z,21.90
2023-01-03T04:16:03.626Z,25.40
2023-01-03T04:18:30.443Z,20.70
2023-01-03T04:20:57.439Z,20.40
2023-01-03T04:23:24.273Z,25.00
2023-01-03T04:28:18.055Z,22.40
2023-01-03T04:30:44.808Z,20.20
2023-01-03T04:33:11.620Z,19.70
2023-01-03T04:38:05.127Z,19.40
2023-01-03T04:43:18.915Z,20.50
2023-01-03T04:45:48.197Z,18.70
2023-01-03T04:49:46.508Z,18.80
2023-01-03T04:52:16.427Z,17.70
2023-01-03T04:54:43.244Z,20.00
2023-01-03T04:59:36.764Z,20.50
2023-01-03T05:04:32.052Z,17.20
2023-01-03T05:06:58.848Z,16.50
2023-01-03T05:09:27.344Z,21.50
2023-01-03T05:11:54.152Z,20.30
2023-01-03T05:16:47.632Z,17.90
2023-01-03T05:22:16.691Z,18.50
2023-01-03T05:25:01.829Z,19.60
2023-01-03T05:27:28.536Z,16.20
2023-01-03T05:29:55.265Z,21.80
2023-01-03T05:32:23.889Z,18.50
2023-01-03T05:34:50.662Z,19.50
2023-01-03T05:37:17.347Z,19.80
2023-01-03T05:39:44.021Z,23.60
2023-01-03T05:42:10.718Z,23.80
2023-01-03T05:44:37.425Z,25.10
2023-01-03T05:47:04.654Z,22.40
2023-01-03T05:49:31.458Z,24.60
2023-01-03T05:51:58.164Z,23.90
2023-01-03T05:54:24.919Z,27.40
2023-01-03T05:59:18.869Z,24.20
2023-01-03T06:01:45.699Z,24.80
2023-01-03T06:06:39.145Z,22.60
2023-01-03T06:09:05.814Z,21.30
2023-01-03T06:11:32.588Z,20.10
2023-01-03T06:16:44.709Z,17.60
2023-01-03T06:19:11.690Z,16.90
2023-01-03T06:24:05.563Z,16.50
2023-01-03T06:26:32.389Z,13.80
2023-01-03T06:31:25.864Z,14.40
2023-01-03T06:36:21.615Z,13.80
2023-01-03T06:38:48.338Z,14.90
2023-01-03T06:41:15.638Z,14.90
2023-01-03T06:43:42.429Z,16.90
2023-01-03T06:46:29.408Z,19.30
2023-01-03T06:49:16.420Z,14.20
2023-01-03T06:52:01.668Z,18.80
2023-01-03T06:54:32.823Z,14.70
2023-01-03T06:56:59.651Z,18.40
2023-01-03T07:01:53.424Z,14.50
2023-01-03T07:04:20.910Z,13.70
2023-01-03T07:06:47.718Z,15.60
2023-01-03T07:11:41.472Z,22.50
2023-01-03T07:14:09.562Z,19.10
2023-01-03T07:16:44.095Z,17.50
2023-01-03T07:19:13.109Z,17.30
2023-01-03T07:21:39.903Z,15.30
2023-01-03T07:26:34.239Z,16.10
2023-01-03T07:29:02.684Z,17.90
2023-01-03T07:31:29.469Z,17.20
2023-01-03T07:36:22.834Z,15.30
2023-01-03T07:38:49.626Z,15.30
2023-01-03T07:43:47.413Z,18.30
2023-01-03T07:46:15.458Z,19.60
2023-01-03T07:48:42.850Z,20.00
2023-01-03T07:51:10.089Z,17.90
2023-01-03T07:53:38.313Z,19.60
2023-01-03T07:56:13.484Z,21.70
2023-01-03T07:58:44.026Z,24.80
2023-01-03T08:01:15.891Z,21.00
2023-01-03T08:03:44.835Z,19.20
2023-01-03T08:06:13.784Z,17.50
2023-01-03T08:08:40.639Z,22.10
2023-01-03T08:13:53.045Z,16.70
2023-01-03T08:16:19.924Z,18.30
2023-01-03T08:21:14.821Z,16.90
2023-01-03T08:23:41.810Z,20.60
2023-01-03T08:26:10.769Z,16.20
2023-01-03T08:28:37.818Z,17.10
2023-01-03T08:31:21.570Z,22.80
2023-01-03T08:33:59.728Z,15.80
2023-01-03T08:36:27.093Z,15.10
2023-01-03T08:38:59.808Z,25.00
2023-01-03T08:41:27.702Z,15.50
2023-01-03T08:43:54.613Z,17.70
2023-01-03T08:46:21.363Z,15.40
2023-01-03T08:51:14.657Z,12.30
2023-01-03T08:53:41.467Z,17.90
2023-01-03T08:58:35.003Z,21.00
2023-01-03T09:01:03.128Z,16.00
2023-01-03T09:03:29.946Z,14.80
2023-01-03T09:06:00.249Z,16.00
2023-01-03T09:08:27.172Z,15.50
2023-01-03T09:13:20.555Z,17.00
2023-01-03T09:18:14.948Z,17.60
2023-01-03T09:20:41.871Z,15.00
2023-01-03T09:23:08.642Z,16.70
2023-01-03T09:25:37.474Z,16.60
2023-01-03T09:28:04.545Z,21.00
2023-01-03T09:32:57.938Z,15.40
2023-01-03T09:35:24.632Z,17.50
2023-01-03T09:40:18.091Z,16.70
2023-01-03T09:45:32.678Z,18.40
2023-01-03T09:48:01.158Z,18.00
2023-01-03T09:50:44.282Z,20.00
2023-01-03T09:56:25.900Z,18.80
2023-01-03T09:59:12.866Z,16.50
2023-01-03T10:02:07.728Z,16.70
2023-01-03T10:04:49.806Z,17.70
2023-01-03T10:07:40.739Z,19.30
2023-01-03T10:10:14.936Z,17.20
2023-01-03T10:12:43.819Z,15.20
2023-01-03T10:15:18.169Z,20.20
2023-01-03T10:17:53.949Z,19.80
2023-01-03T10:20:28.043Z,16.40
2023-01-03T10:22:59.512Z,18.80
2023-01-03T10:28:10.748Z,17.70
2023-01-03T10:31:05.462Z,19.30
2023-01-03T10:33:41.503Z,19.20
2023-01-03T10:36:08.781Z,25.30
2023-01-03T10:38:43.682Z,19.70
2023-01-03T10:41:20.271Z,12.80
2023-01-03T10:43:56.904Z,15.40
2023-01-03T10:46:25.457Z,20.50
2023-01-03T10:49:26.081Z,16.00
2023-01-03T10:52:01.407Z,16.80
2023-01-03T10:54:43.747Z,14.70
2023-01-03T10:57:46.525Z,19.50
2023-01-03T11:00:36.827Z,14.80
2023-01-03T11:03:14.489Z,19.10
2023-01-03T11:05:42.571Z,13.50
2023-01-03T11:08:35.412Z,15.10
2023-01-03T11:11:02.119Z,15.50
2023-01-03T11:15:58.392Z,15.00
2023-01-03T11:18:27.696Z,14.00
2023-01-03T11:20:56.966Z,18.70
2023-01-03T11:23:42.519Z,14.90
2023-01-03T11:26:33.505Z,21.90
2023-01-03T11:29:39.109Z,12.70
2023-01-03T11:32:21.801Z,14.10
2023-01-03T11:35:22.364Z,14.90
2023-01-03T11:37:57.843Z,15.90
2023-01-03T11:40:42.888Z,16.00
2023-01-03T11:43:33.528Z,13.90
2023-01-03T11:46:34.255Z,15.00
2023-01-03T11:49:07.647Z,15.50
2023-01-03T11:51:56.394Z,19.20
2023-01-03T11:54:41.850Z,13.00
2023-01-03T11:57:43.945Z,18.10
2023-01-03T12:00:26.291Z,18.90
2023-01-03T12:03:12.305Z,14.00
2023-01-03T12:05:51.324Z,14.40
2023-01-03T12:08:59.499Z,15.40
2023-01-03T12:11:39.036Z,16.10
2023-01-03T12:14:14.726Z,15.90
2023-01-03T12:16:45.763Z,15.40
2023-01-03T12:19:32.693Z,16.90
2023-01-03T12:22:26.488Z,15.10
2023-01-03T12:25:04.435Z,17.60
2023-01-03T12:27:55.254Z,15.80
2023-01-03T12:30:28.982Z,16.10
2023-01-03T12:32:57.510Z,15.20
2023-01-03T12:35:59.330Z,17.60
2023-01-03T12:38:29.530Z,16.10
2023-01-03T12:41:07.826Z,17.80
2023-01-03T12:43:55.327Z,13.50
2023-01-03T12:46:29.034Z,13.20
2023-01-03T12:49:12.535Z,17.40
2023-01-03T12:51:39.210Z,13.20
2023-01-03T12:57:02.737Z,18.20
2023-01-03T12:59:29.457Z,12.20
2023-01-03T13:04:30.604Z,12.80
2023-01-03T13:07:00.192Z,13.30
2023-01-03T13:09:32.167Z,12.10
2023-01-03T13:12:02.745Z,13.80
2023-01-03T13:14:29.688Z,12.60
2023-01-03T13:17:04.354Z,13.90
2023-01-03T13:19:37.162Z,13.20
2023-01-03T13:22:05.361Z,12.60
2023-01-03T13:24:46.021Z,14.30
2023-01-03T13:27:27.942Z,12.50
2023-01-03T13:29:57.347Z,16.10
2023-01-03T13:32:24.139Z,11.50
2023-01-03T13:37:27.679Z,14.10
2023-01-03T13:39:58.868Z,18.10
2023-01-03T13:42:28.543Z,17.40
2023-01-03T13:45:11.524Z,16.40
2023-01-03T13:47:41.208Z,15.30
2023-01-03T13:50:34.404Z,15.10
2023-01-03T13:53:05.015Z,17.00
2023-01-03T13:55:57.307Z,14.60
2023-01-03T13:58:24.093Z,10.90
2023-01-03T14:04:03.455Z,13.90
2023-01-03T14:06:41.099Z,10.30
2023-01-03T14:09:22.897Z,12.50
2023-01-03T14:12:03.583Z,14.30
2023-01-03T14:14:31.230Z,15.60
2023-01-03T14:16:58.033Z,16.00
2023-01-03T14:22:27.546Z,10.80
2023-01-03T14:24:57.425Z,18.70
2023-01-03T14:27:27.700Z,15.20
2023-01-03T14:29:55.009Z,11.90
2023-01-03T14:32:30.552Z,15.20
2023-01-03T14:35:00.978Z,15.40
2023-01-03T14:40:01.806Z,11.80
2023-01-03T14:42:28.715Z,16.10
2023-01-03T14:44:59.970Z,16.30
2023-01-03T14:47:42.545Z,12.50
2023-01-03T14:50:19.279Z,16.20
2023-01-03T14:52:46.236Z,15.20
2023-01-03T14:55:16.045Z,16.80
2023-01-03T14:57:43.748Z,14.50
2023-01-03T15:00:40.025Z,16.20
2023-01-03T15:03:09.214Z,14.80
2023-01-03T15:05:40.890Z,16.20
2023-01-03T15:08:31.569Z,13.50
2023-01-03T15:11:06.118Z,15.70
2023-01-03T15:13:38.410Z,15.10
2023-01-03T15:16:06.744Z,17.90
2023-01-03T15:18:35.565Z,15.00
2023-01-03T15:21:02.848Z,14.40
2023-01-03T15:23:40.595Z,14.50
2023-01-03T15:26:08.231Z,17.10
2023-01-03T15:28:38.587Z,16.10
2023-01-03T15:31:28.113Z,15.40
2023-01-03T15:34:13.562Z,16.40
2023-01-03T15:36:40.504Z,19.40
2023-01-03T15:39:19.549Z,17.50
2023-01-03T15:42:35.072Z,17.40
2023-01-03T15:44:52.135Z,19.60
2023-01-03T15:47:18.967Z,16.60
2023-01-03T15:52:14.099Z,18.00
2023-01-03T15:54:41.940Z,14.90
2023-01-03T15:57:17.729Z,16.40
2023-01-03T15:59:44.453Z,15.70
2023-01-03T16:02:16.223Z,14.70
2023-01-03T16:04:46.983Z,15.60
2023-01-03T16:07:14.255Z,16.00
2023-01-03T16:09:41.352Z,21.90
2023-01-03T16:12:14.847Z,23.50
2023-01-03T16:14:41.539Z,20.10
2023-01-03T16:17:08.561Z,22.30
2023-01-03T16:19:35.325Z,19.30
2023-01-03T16:22:33.799Z,16.50
2023-01-03T16:24:50.417Z,17.90
2023-01-03T16:27:21.988Z,16.50
2023-01-03T16:29:48.756Z,19.60
2023-01-03T16:34:59.672Z,14.70
2023-01-03T16:37:27.466Z,16.90
2023-01-03T16:39:54.348Z,21.80
2023-01-03T16:44:54.568Z,23.90
2023-01-03T16:50:02.837Z,19.80
2023-01-03T16:52:36.608Z,16.80
2023-01-03T16:55:16.172Z,17.40
2023-01-03T16:57:43.816Z,33.20
2023-01-03T17:00:16.764Z,24.80
2023-01-03T17:02:43.991Z,23.60
2023-01-03T17:06:38.506Z,21.90
2023-01-03T17:09:14.250Z,24.90
2023-01-03T17:11:40.930Z,23.90
2023-01-03T17:19:02.900Z,19.50
2023-01-03T17:21:33.854Z,19.70
2023-01-03T17:24:29.918Z,19.50
2023-01-03T17:27:01.504Z,15.40
2023-01-03T17:29:28.211Z,14.10
2023-01-03T17:31:54.902Z,13.30
2023-01-03T17:34:25.589Z,15.50
2023-01-03T17:36:53.084Z,13.30
2023-01-03T17:39:19.972Z,11.30
2023-01-03T17:44:31.930Z,11.90
2023-01-03T17:49:48.442Z,13.20
2023-01-03T17:54:49.984Z,13.30
2023-01-03T17:57:16.710Z,18.50
2023-01-03T17:59:43.411Z,14.70
2023-01-03T18:02:21.364Z,18.50
2023-01-03T18:05:15.133Z,18.80
2023-01-03T18:07:36.611Z,23.40
2023-01-03T18:10:03.496Z,31.00
2023-01-03T18:12:31.254Z,21.30
2023-01-03T18:14:58.115Z,49.70
2023-01-03T18:17:28.511Z,58.40
2023-01-03T18:19:55.919Z,28.00
2023-01-03T18:22:23.071Z,38.40
2023-01-03T18:24:51.628Z,14.70
2023-01-03T18:27:21.017Z,32.10
2023-01-03T18:29:47.715Z,21.60
2023-01-03T18:32:31.216Z,13.10
2023-01-03T18:34:58.327Z,19.80
2023-01-03T18:37:34.087Z,15.30
2023-01-03T18:40:01.388Z,13.00
2023-01-03T18:42:46.971Z,13.30
2023-01-03T18:45:13.826Z,15.40
2023-01-03T18:50:07.568Z,21.10
2023-01-03T18:52:40.349Z,13.20
2023-01-03T18:55:07.691Z,21.80
2023-01-03T18:57:34.868Z,19.20
2023-01-03T19:00:01.707Z,16.40
2023-01-03T19:04:55.704Z,13.70
2023-01-03T19:07:29.197Z,11.90
2023-01-03T19:09:56.192Z,10.90
2023-01-03T19:12:22.921Z,10.80
2023-01-03T19:14:49.671Z,13.80
2023-01-03T19:17:18.041Z,15.00
2023-01-03T19:19:44.798Z,13.60
2023-01-03T19:22:30.071Z,10.00
2023-01-03T19:24:58.392Z,10.30
2023-01-03T19:27:29.875Z,12.10
2023-01-03T19:29:56.571Z,8.50
2023-01-03T19:32:24.770Z,9.10
2023-01-03T19:34:51.529Z,11.30
2023-01-03T19:37:18.435Z,9.20
2023-01-03T19:39:45.153Z,7.80
2023-01-03T19:42:35.092Z,7.60
2023-01-03T19:45:02.442Z,7.70
2023-01-03T19:47:29.110Z,7.00
2023-01-03T19:50:11.718Z,12.70
2023-01-03T19:52:38.506Z,9.00
2023-01-03T19:55:05.920Z,12.50
2023-01-03T19:57:33.493Z,13.30
2023-01-03T20:00:00.790Z,9.70
2023-01-03T20:02:39.558Z,12.20
2023-01-03T20:05:13.602Z,12.60
2023-01-03T20:07:40.598Z,11.70
2023-01-03T20:10:08.068Z,28.80
2023-01-03T20:12:34.985Z,28.90
2023-01-03T20:15:07.268Z,21.70
2023-01-03T20:17:34.830Z,20.10
2023-01-03T20:20:01.870Z,15.30
2023-01-03T20:25:29.652Z,11.00
2023-01-03T20:27:56.706Z,12.60
2023-01-03T20:30:24.689Z,9.20
2023-01-03T20:32:51.775Z,12.10
2023-01-03T20:36:08.370Z,10.50
2023-01-03T20:38:07.090Z,9.80
2023-01-03T20:40:33.914Z,13.00
2023-01-03T20:45:29.286Z,10.50
2023-01-03T20:50:26.815Z,10.50
2023-01-03T20:52:54.089Z,12.90
2023-01-03T20:55:23.225Z,10.30
2023-01-03T20:57:50.040Z,10.20
2023-01-03T21:02:43.915Z,13.10
2023-01-03T21:05:10.950Z,10.00
2023-01-03T21:10:28.207Z,9.30
2023-01-03T21:12:55.021Z,17.20
2023-01-03T21:15:21.756Z,14.00
2023-01-03T21:17:51.250Z,20.10
2023-01-03T21:20:21.267Z,15.90
2023-01-03T21:22:47.999Z,22.50
2023-01-03T21:25:25.789Z,21.20
2023-01-03T21:27:52.849Z,20.80
2023-01-03T21:30:20.432Z,22.60
2023-01-03T21:32:47.931Z,25.80
2023-01-03T21:35:16.392Z,25.40
2023-01-03T21:37:43.238Z,21.10
2023-01-03T21:43:04.558Z,25.00
2023-01-03T21:45:36.719Z,22.60
2023-01-03T21:48:05.331Z,21.50
2023-01-03T21:50:32.629Z,41.80
2023-01-03T21:52:59.618Z,25.80
2023-01-03T21:55:26.479Z,30.40
2023-01-03T22:00:19.947Z,26.40
2023-01-03T22:05:45.751Z,26.60
2023-01-03T22:08:12.515Z,24.80
2023-01-03T22:10:39.219Z,20.30
2023-01-03T22:13:06.881Z,20.20
2023-01-03T22:15:37.038Z,34.10
2023-01-03T22:18:05.955Z,29.50
2023-01-03T22:20:38.179Z,28.10
2023-01-03T22:23:06.775Z,37.40
2023-01-03T22:25:33.617Z,46.00
2023-01-03T22:30:27.214Z,34.60
2023-01-03T22:35:22.349Z,19.30
2023-01-03T22:37:49.065Z,20.30
2023-01-03T22:40:16.386Z,25.40
2023-01-03T22:42:43.240Z,43.00
2023-01-03T22:47:37.130Z,35.30
2023-01-03T22:52:31.522Z,23.50
2023-01-03T22:54:58.575Z,23.40
2023-01-03T22:57:25.350Z,33.30
2023-01-03T22:59:52.118Z,28.40
2023-01-03T23:04:51.757Z,23.30
2023-01-03T23:07:18.471Z,21.70
2023-01-03T23:09:45.147Z,17.90
2023-01-03T23:12:30.447Z,14.20
2023-01-03T23:14:57.152Z,27.70
2023-01-03T23:17:42.517Z,15.10
2023-01-03T23:20:09.862Z,17.00
2023-01-03T23:22:36.596Z,22.40
2023-01-03T23:25:03.386Z,19.60
2023-01-03T23:29:56.785Z,19.80
2023-01-03T23:32:23.489Z,14.80
2023-01-03T23:34:50.175Z,24.20
2023-01-03T23:37:16.858Z,25.00
2023-01-03T23:39:43.986Z,13.50
2023-01-03T23:42:10.629Z,17.90
2023-01-03T23:44:37.383Z,14.40
2023-01-03T23:47:11.071Z,14.50
2023-01-03T23:49:38.925Z,18.00
2023-01-03T23:52:05.584Z,17.80
2023-01-03T23:54:32.291Z,19.40
2023-01-03T23:56:59.008Z,12.90
2023-01-03T23:59:25.748Z,14.70
